PAAQ METAR and TAF weather

Enter ICAO airport designator
Station Type Date Time Source
PAAQ METAR 2018/12/11 21:53 UTC NOAA

PAAQ 112153Z 00000KT 10SM CLR M04/M05 A2871 RMK AO2 SLP725 T10391050


Station Type Date Time Source
PAAQ Decoded METAR 2018/12/11 21:53 UTC NOAA

PALMER MUNICIPAL AIRPORT, AK, United States (PAAQ) 61-36N 149-06W
Dec 11, 2018 - 04:53 PM EST / 2018.12.11 2153 UTC
Wind: Calm:0
Visibility: 10 mile(s):0
Sky conditions: clear
Temperature: 25.0 F (-3.9 C)
Dew Point: 23.0 F (-5.0 C)
Relative Humidity: 92%
Pressure (altimeter): 28.71 in. Hg (972 hPa)
ob: PAAQ 112153Z 00000KT 10SM CLR M04/M05 A2871 RMK AO2 SLP725 T10391050
cycle: 22

Station Type Date Time Source
PAAQ TAF 2018/12/11 18:24 UTC NOAA

TAF PAAQ 111721Z 1118/1218 VRB04KT 6SM -SN OVC035
FM120200 VRB04KT 2SM -SN BR OVC020


Example: see airport list